createdAt,value
2023-01-20T00:05:51.300Z,100184.00
2023-01-20T00:15:51.394Z,100191.00
2023-01-20T00:25:51.326Z,100197.00
2023-01-20T00:35:51.341Z,100203.00
2023-01-20T00:45:51.433Z,100205.00
2023-01-20T00:55:51.339Z,100213.00
2023-01-20T01:05:51.383Z,100217.00
2023-01-20T01:15:51.518Z,100221.00
2023-01-20T01:25:51.422Z,100238.00
2023-01-20T01:35:51.405Z,100252.00
2023-01-20T01:45:51.460Z,100266.00
2023-01-20T01:55:51.398Z,100274.00
2023-01-20T02:05:51.416Z,100286.00
2023-01-20T02:15:51.483Z,100288.00
2023-01-20T02:25:51.457Z,100290.00
2023-01-20T02:35:51.480Z,100302.00
2023-01-20T02:45:51.531Z,100308.00
2023-01-20T02:55:51.579Z,100311.00
2023-01-20T03:05:51.595Z,100315.00
2023-01-20T03:15:51.652Z,100319.00
2023-01-20T03:25:51.506Z,100327.00
2023-01-20T03:35:51.602Z,100335.00
2023-01-20T03:45:51.558Z,100335.00
2023-01-20T03:55:51.595Z,100339.00
2023-01-20T04:05:51.667Z,100345.00
2023-01-20T04:15:51.718Z,100351.00
2023-01-20T04:25:51.559Z,100355.00
2023-01-20T04:35:51.588Z,100357.00
2023-01-20T04:45:51.624Z,100366.00
2023-01-20T04:55:51.667Z,100372.00
2023-01-20T05:05:51.621Z,100380.00
2023-01-20T05:15:51.731Z,100382.00
2023-01-20T05:25:51.673Z,100386.00
2023-01-20T05:35:52.358Z,100396.00
2023-01-20T05:45:53.682Z,100406.00
2023-01-20T05:55:53.830Z,100415.00
2023-01-20T06:05:53.714Z,100421.00
2023-01-20T06:15:53.870Z,100435.00
2023-01-20T06:25:53.793Z,100441.00
2023-01-20T06:35:53.938Z,100451.00
2023-01-20T06:45:53.745Z,100453.00
2023-01-20T06:55:53.839Z,100460.00
2023-01-20T07:05:53.872Z,100466.00
2023-01-20T07:15:53.839Z,100480.00
2023-01-20T07:25:53.864Z,100494.00
2023-01-20T07:35:54.044Z,100502.00
2023-01-20T07:45:53.915Z,100509.00
2023-01-20T07:55:53.868Z,100521.00
2023-01-20T08:05:53.886Z,100533.00
2023-01-20T08:15:54.023Z,100547.00
2023-01-20T08:25:55.860Z,100561.00
2023-01-20T08:35:57.832Z,100569.00
2023-01-20T08:45:57.989Z,100581.00
2023-01-20T08:55:57.919Z,100592.00
2023-01-20T09:05:58.920Z,100590.00
2023-01-20T09:15:59.004Z,100594.00
2023-01-20T09:25:59.601Z,100602.00
2023-01-20T09:35:59.914Z,100608.00
2023-01-20T09:46:00.081Z,100614.00
2023-01-20T09:55:59.991Z,100612.00
2023-01-20T10:06:00.103Z,100612.00
2023-01-20T10:16:00.133Z,100612.00
2023-01-20T10:26:00.139Z,100614.00
2023-01-20T10:36:00.062Z,100608.00
2023-01-20T10:46:00.052Z,100606.00
2023-01-20T10:56:00.234Z,100604.00
2023-01-20T11:06:00.125Z,100600.00
2023-01-20T11:16:00.335Z,100602.00
2023-01-20T11:26:00.154Z,100600.00
2023-01-20T11:36:00.130Z,100602.00
2023-01-20T11:46:00.174Z,100598.00
2023-01-20T11:56:00.190Z,100596.00
2023-01-20T12:06:00.152Z,100596.00
2023-01-20T12:16:00.952Z,100594.00
2023-01-20T12:26:01.269Z,100596.00
2023-01-20T12:36:02.936Z,100596.00
2023-01-20T12:46:03.217Z,100596.00
2023-01-20T12:56:03.367Z,100596.00
2023-01-20T13:06:03.204Z,100600.00
2023-01-20T13:16:03.420Z,100604.00
2023-01-20T13:26:03.324Z,100602.00
2023-01-20T13:36:03.739Z,100608.00
2023-01-20T13:46:05.943Z,100610.00
2023-01-20T13:56:07.695Z,100614.00
2023-01-20T14:06:11.051Z,100622.00
2023-01-20T14:16:13.957Z,100632.00
2023-01-20T14:26:14.363Z,100641.00
2023-01-20T14:36:14.277Z,100649.00
2023-01-20T14:46:17.364Z,100663.00
2023-01-20T14:56:17.386Z,100673.00
2023-01-20T15:06:17.337Z,100683.00
2023-01-20T15:16:17.686Z,100696.00
2023-01-20T15:26:17.847Z,100710.00
2023-01-20T15:36:18.351Z,100722.00
2023-01-20T15:46:17.722Z,100745.00
2023-01-20T15:56:20.308Z,100763.00
2023-01-20T16:06:20.476Z,100775.00
2023-01-20T16:16:20.592Z,100784.00
2023-01-20T16:26:22.197Z,100805.00
2023-01-20T16:36:22.773Z,100819.00
2023-01-20T16:46:22.466Z,100830.00
2023-01-20T16:56:22.721Z,100842.00
2023-01-20T17:06:22.537Z,100858.00
2023-01-20T17:16:22.593Z,100871.00
2023-01-20T17:26:22.603Z,100891.00
2023-01-20T17:36:40.848Z,100903.00
2023-01-20T17:47:02.345Z,100918.00
2023-01-20T17:57:22.109Z,100934.00
2023-01-20T18:07:41.283Z,100950.00
2023-01-20T18:18:00.688Z,100967.00
2023-01-20T18:28:19.049Z,100981.00
2023-01-20T18:38:40.518Z,100995.00
2023-01-20T18:48:59.097Z,101005.00
2023-01-20T18:59:18.338Z,101014.00
2023-01-20T19:09:37.212Z,101028.00
2023-01-20T19:19:55.958Z,101042.00
2023-01-20T19:30:14.411Z,101066.00
2023-01-20T19:40:33.067Z,101084.00
2023-01-20T19:50:35.656Z,101092.00
2023-01-20T20:00:35.761Z,101107.00
2023-01-20T20:10:35.654Z,101123.00
2023-01-20T20:20:35.660Z,101139.00
2023-01-20T20:30:35.772Z,101156.00
2023-01-20T20:40:35.708Z,101172.00
2023-01-20T20:50:35.738Z,101190.00
2023-01-20T21:00:35.786Z,101205.00
2023-01-20T21:10:35.754Z,101223.00
2023-01-20T21:20:35.725Z,101240.00
2023-01-20T21:30:35.844Z,101252.00
2023-01-20T21:40:35.769Z,101264.00
2023-01-20T21:50:54.199Z,101274.00
2023-01-20T22:00:53.832Z,101287.00
2023-01-20T22:10:53.815Z,101301.00
2023-01-20T22:20:53.841Z,101324.00
2023-01-20T22:30:53.895Z,101343.00
2023-01-20T22:40:53.814Z,101361.00
2023-01-20T22:50:54.688Z,101377.00
2023-01-20T23:00:54.900Z,101390.00
2023-01-20T23:10:54.862Z,101402.00
2023-01-20T23:20:56.365Z,101412.00
2023-01-20T23:30:56.945Z,101420.00
2023-01-20T23:40:56.890Z,101431.00
2023-01-20T23:50:58.792Z,101445.00
